createdAt,value
2018-09-09T00:02:01.336Z,72.40
2018-09-09T00:04:28.913Z,73.20
2018-09-09T00:06:56.453Z,72.30
2018-09-09T00:09:30.785Z,72.70
2018-09-09T00:11:58.312Z,72.20
2018-09-09T00:14:26.094Z,72.70
2018-09-09T00:16:53.593Z,72.90
2018-09-09T00:19:21.153Z,74.10
2018-09-09T00:21:48.738Z,75.20
2018-09-09T00:24:16.411Z,75.10
2018-09-09T00:26:44.111Z,76.60
2018-09-09T00:29:11.639Z,77.20
2018-09-09T00:31:39.300Z,77.90
2018-09-09T00:34:06.932Z,79.10
2018-09-09T00:36:34.531Z,79.80
2018-09-09T00:39:02.212Z,78.30
2018-09-09T00:41:29.833Z,78.40
2018-09-09T00:43:57.477Z,76.60
2018-09-09T00:46:25.020Z,75.30
2018-09-09T00:48:59.083Z,74.20
2018-09-09T00:52:34.795Z,74.50
2018-09-09T00:55:02.413Z,73.50
2018-09-09T00:57:29.971Z,72.40
2018-09-09T00:59:57.679Z,71.90
2018-09-09T01:02:25.297Z,71.20
2018-09-09T01:04:52.927Z,71.00
2018-09-09T01:07:20.424Z,70.90
2018-09-09T01:09:47.984Z,72.40
2018-09-09T01:12:15.539Z,73.10
2018-09-09T01:14:43.136Z,74.10
2018-09-09T01:17:10.736Z,73.60
2018-09-09T01:19:38.347Z,73.20
2018-09-09T01:22:05.971Z,73.60
2018-09-09T01:24:33.455Z,74.10
2018-09-09T01:27:01.102Z,73.40
2018-09-09T01:29:28.705Z,73.70
2018-09-09T01:31:56.313Z,73.80
2018-09-09T01:34:23.939Z,73.50
2018-09-09T01:36:51.489Z,72.30
2018-09-09T01:39:19.037Z,74.40
2018-09-09T01:41:46.599Z,72.10
2018-09-09T01:44:14.175Z,71.40
2018-09-09T01:46:41.830Z,71.30
2018-09-09T01:49:13.153Z,71.10
2018-09-09T01:51:40.817Z,69.90
2018-09-09T01:54:08.416Z,69.60
2018-09-09T01:56:35.944Z,69.50
2018-09-09T01:59:03.550Z,69.80
2018-09-09T02:01:31.049Z,69.40
2018-09-09T02:03:58.593Z,69.40
2018-09-09T02:06:26.077Z,69.20
2018-09-09T02:08:53.666Z,71.00
2018-09-09T02:11:21.158Z,68.70
2018-09-09T02:13:48.714Z,67.30
2018-09-09T02:16:16.365Z,66.40
2018-09-09T02:18:44.849Z,67.60
2018-09-09T02:21:12.372Z,67.50
2018-09-09T02:23:39.895Z,66.80
2018-09-09T02:26:07.439Z,67.00
2018-09-09T02:28:34.986Z,66.50
2018-09-09T02:31:02.498Z,66.60
2018-09-09T02:33:30.080Z,66.30
2018-09-09T02:35:57.638Z,67.30
2018-09-09T02:38:25.200Z,67.40
2018-09-09T02:40:52.800Z,68.80
2018-09-09T02:43:20.528Z,69.80
2018-09-09T02:45:48.081Z,69.40
2018-09-09T02:48:15.693Z,69.60
2018-09-09T02:50:43.489Z,71.00
2018-09-09T02:53:11.154Z,71.60
2018-09-09T02:55:43.483Z,72.40
2018-09-09T02:58:11.702Z,72.90
2018-09-09T03:00:39.251Z,72.30
2018-09-09T03:03:06.812Z,72.20
2018-09-09T03:05:34.409Z,72.30
2018-09-09T03:08:01.974Z,72.10
2018-09-09T03:10:29.517Z,71.80
2018-09-09T03:13:07.996Z,72.20
2018-09-09T03:15:35.691Z,72.60
2018-09-09T03:18:03.543Z,74.00
2018-09-09T03:20:31.038Z,74.10
2018-09-09T03:22:58.683Z,74.10
2018-09-09T03:25:26.209Z,74.20
2018-09-09T03:27:53.728Z,75.50
2018-09-09T03:30:21.265Z,75.00
2018-09-09T03:32:48.846Z,74.90
2018-09-09T03:35:16.390Z,75.00
2018-09-09T03:37:43.938Z,74.80
2018-09-09T03:40:11.541Z,74.90
2018-09-09T03:42:39.228Z,74.30
2018-09-09T03:48:00.717Z,74.30
2018-09-09T03:50:28.557Z,73.70
2018-09-09T03:53:07.674Z,74.10
2018-09-09T03:55:35.588Z,73.50
2018-09-09T03:58:03.277Z,72.00
2018-09-09T04:00:31.164Z,72.00
2018-09-09T04:02:59.017Z,72.10
2018-09-09T04:05:26.676Z,71.50
2018-09-09T04:07:54.358Z,72.20
2018-09-09T04:10:22.103Z,71.00
2018-09-09T04:12:49.715Z,70.30
2018-09-09T04:15:17.276Z,70.80
2018-09-09T04:17:44.904Z,71.10
2018-09-09T04:20:12.760Z,72.00
2018-09-09T04:22:40.491Z,71.90
2018-09-09T04:25:08.276Z,70.90
2018-09-09T04:27:35.931Z,71.40
2018-09-09T04:30:03.627Z,71.50
2018-09-09T04:32:31.228Z,72.20
2018-09-09T04:34:59.079Z,71.30
2018-09-09T04:37:26.791Z,71.10
2018-09-09T04:39:54.436Z,70.80
2018-09-09T04:42:22.176Z,70.60
2018-09-09T04:44:49.892Z,71.30
2018-09-09T04:47:17.555Z,69.40
2018-09-09T04:49:45.230Z,70.10
2018-09-09T04:52:12.773Z,69.50
2018-09-09T04:54:40.464Z,71.10
2018-09-09T04:57:08.151Z,69.80
2018-09-09T04:59:35.796Z,70.50
2018-09-09T05:02:03.469Z,70.70
2018-09-09T05:04:31.132Z,71.00
2018-09-09T05:06:58.781Z,71.00
2018-09-09T05:09:26.417Z,71.10
2018-09-09T05:11:54.162Z,70.40
2018-09-09T05:14:21.755Z,71.10
2018-09-09T05:16:49.491Z,70.40
2018-09-09T05:19:17.120Z,70.40
2018-09-09T05:21:44.800Z,69.90
2018-09-09T05:24:12.417Z,70.20
2018-09-09T05:26:39.958Z,70.30
2018-09-09T05:29:07.891Z,70.00
2018-09-09T05:31:35.480Z,69.80
2018-09-09T05:34:03.126Z,69.70
2018-09-09T05:36:30.704Z,69.70
2018-09-09T05:38:59.366Z,69.80
2018-09-09T05:41:26.930Z,69.20
2018-09-09T05:43:54.555Z,69.40
2018-09-09T05:46:22.159Z,70.70
2018-09-09T05:48:49.773Z,69.40
2018-09-09T05:51:17.472Z,68.60
2018-09-09T05:53:45.033Z,69.00
2018-09-09T05:56:12.793Z,69.00
2018-09-09T05:58:40.451Z,69.10
2018-09-09T06:01:08.684Z,68.10
2018-09-09T06:03:36.229Z,67.60
2018-09-09T06:06:03.789Z,68.00
2018-09-09T06:08:31.374Z,67.30
2018-09-09T06:10:58.979Z,67.00
2018-09-09T06:13:26.948Z,66.90
2018-09-09T06:15:54.536Z,66.50
2018-09-09T06:18:22.238Z,67.20
2018-09-09T06:20:49.891Z,66.80
2018-09-09T06:23:17.581Z,66.40
2018-09-09T06:25:45.558Z,67.00
2018-09-09T06:28:13.523Z,67.10
2018-09-09T06:30:41.324Z,66.70
2018-09-09T06:33:09.140Z,66.80
2018-09-09T06:35:37.072Z,66.70
2018-09-09T06:38:04.898Z,66.10
2018-09-09T06:40:32.880Z,64.90
2018-09-09T06:43:00.551Z,64.90
2018-09-09T06:45:28.578Z,63.50
2018-09-09T06:47:56.339Z,63.40
2018-09-09T06:50:24.051Z,62.60
2018-09-09T06:52:51.810Z,62.00
2018-09-09T06:55:19.538Z,61.80
2018-09-09T06:57:47.274Z,61.10
2018-09-09T07:00:15.064Z,61.90
2018-09-09T07:02:42.740Z,61.10
2018-09-09T07:05:10.389Z,60.50
2018-09-09T07:07:38.132Z,61.10
2018-09-09T07:10:05.772Z,61.10
2018-09-09T07:12:33.418Z,59.90
2018-09-09T07:15:01.173Z,59.50
2018-09-09T07:17:28.849Z,59.10
2018-09-09T07:19:56.667Z,59.10
2018-09-09T07:22:24.315Z,58.30
2018-09-09T07:24:51.961Z,58.20
2018-09-09T07:27:19.600Z,58.60
2018-09-09T07:29:47.210Z,59.10
2018-09-09T07:32:14.900Z,59.30
2018-09-09T07:34:42.481Z,59.40
2018-09-09T07:37:10.281Z,59.60
2018-09-09T07:39:38.228Z,59.40
2018-09-09T07:42:06.220Z,58.20
2018-09-09T07:44:33.832Z,56.90
2018-09-09T07:47:01.528Z,55.70
2018-09-09T07:49:29.283Z,55.70
2018-09-09T07:51:57.060Z,54.50
2018-09-09T07:54:24.722Z,53.90
2018-09-09T07:56:52.499Z,52.90
2018-09-09T07:59:20.206Z,51.60
2018-09-09T08:01:48.003Z,50.50
2018-09-09T08:04:15.885Z,49.70
2018-09-09T08:06:43.669Z,49.20
2018-09-09T08:09:11.674Z,49.60
2018-09-09T08:11:39.914Z,47.20
2018-09-09T08:14:09.301Z,46.20
2018-09-09T08:16:37.060Z,45.60
2018-09-09T08:19:05.187Z,44.40
2018-09-09T08:21:33.838Z,43.60
2018-09-09T08:24:02.024Z,44.00
2018-09-09T08:26:29.660Z,44.20
2018-09-09T08:28:57.393Z,43.60
2018-09-09T08:31:25.083Z,42.80
2018-09-09T08:33:53.594Z,41.70
2018-09-09T08:36:21.298Z,41.40
2018-09-09T08:38:48.902Z,42.00
2018-09-09T08:41:16.827Z,42.70
2018-09-09T08:43:44.583Z,44.10
2018-09-09T08:46:12.188Z,42.50
2018-09-09T08:48:39.857Z,42.20
2018-09-09T08:51:07.553Z,40.90
2018-09-09T08:53:35.157Z,37.80
2018-09-09T08:56:03.036Z,38.30
2018-09-09T08:58:30.693Z,38.20
2018-09-09T09:00:58.306Z,39.10
2018-09-09T09:03:25.919Z,38.40
2018-09-09T09:05:53.677Z,38.50
2018-09-09T09:08:21.534Z,37.70
2018-09-09T09:10:49.301Z,37.70
2018-09-09T09:13:17.593Z,41.30
2018-09-09T09:15:45.609Z,38.70
2018-09-09T09:18:13.293Z,39.10
2018-09-09T09:20:40.911Z,37.30
2018-09-09T09:23:08.567Z,38.20
2018-09-09T09:25:40.012Z,40.00
2018-09-09T09:28:07.656Z,39.90
2018-09-09T09:30:35.533Z,38.50
2018-09-09T09:33:03.240Z,38.30
2018-09-09T09:35:36.544Z,38.60
2018-09-09T09:38:04.188Z,38.20
2018-09-09T09:40:31.829Z,36.80
2018-09-09T09:42:59.475Z,36.70
2018-09-09T09:45:27.182Z,35.90
2018-09-09T09:47:55.041Z,34.90
2018-09-09T09:50:22.675Z,37.50
2018-09-09T09:52:50.235Z,35.50
2018-09-09T09:55:17.887Z,37.10
2018-09-09T09:57:45.498Z,36.80
2018-09-09T10:00:18.824Z,35.50
2018-09-09T10:02:46.531Z,36.00
2018-09-09T10:05:15.027Z,36.10
2018-09-09T10:07:42.679Z,34.90
2018-09-09T10:10:10.360Z,33.40
2018-09-09T10:12:38.769Z,34.90
2018-09-09T10:15:06.543Z,34.90
2018-09-09T10:17:34.257Z,34.50
2018-09-09T10:20:01.947Z,35.30
2018-09-09T10:22:29.542Z,36.10
2018-09-09T10:24:57.263Z,34.10
2018-09-09T10:27:24.845Z,35.40
2018-09-09T10:29:53.051Z,33.10
2018-09-09T10:32:20.977Z,33.00
2018-09-09T10:34:48.902Z,33.90
2018-09-09T10:37:17.009Z,33.70
2018-09-09T10:39:45.068Z,34.30
2018-09-09T10:42:13.185Z,34.30
2018-09-09T10:44:41.191Z,34.90
2018-09-09T10:47:09.345Z,34.60
2018-09-09T10:49:37.397Z,33.70
2018-09-09T10:52:05.506Z,35.10
2018-09-09T10:54:33.510Z,35.00
2018-09-09T10:57:01.576Z,35.30
2018-09-09T10:59:29.686Z,34.30
2018-09-09T11:01:57.825Z,34.70
2018-09-09T11:04:25.884Z,34.90
2018-09-09T11:06:55.317Z,34.40
2018-09-09T11:09:23.510Z,34.10
2018-09-09T11:11:51.435Z,35.20
2018-09-09T11:14:19.427Z,35.70
2018-09-09T11:16:47.383Z,35.10
2018-09-09T11:19:15.258Z,36.20
2018-09-09T11:21:43.204Z,36.50
2018-09-09T11:24:11.207Z,36.00
2018-09-09T11:26:39.042Z,35.10
2018-09-09T11:29:07.041Z,35.80
2018-09-09T11:31:34.983Z,36.10
2018-09-09T11:34:03.068Z,36.10
2018-09-09T11:36:30.966Z,35.70
2018-09-09T11:38:58.946Z,35.60
2018-09-09T11:41:26.914Z,36.50
2018-09-09T11:43:54.904Z,35.90
2018-09-09T11:46:22.888Z,35.40
2018-09-09T11:48:50.896Z,36.00
2018-09-09T11:51:19.259Z,36.00
2018-09-09T11:53:47.248Z,35.70
2018-09-09T11:56:15.276Z,35.70
2018-09-09T11:58:43.305Z,36.20
2018-09-09T12:01:11.376Z,35.30
2018-09-09T12:03:39.440Z,35.30
2018-09-09T12:06:07.429Z,35.50
2018-09-09T12:08:36.446Z,34.90
2018-09-09T12:11:04.827Z,35.30
2018-09-09T12:13:32.920Z,35.60
2018-09-09T12:16:01.028Z,34.50
2018-09-09T12:18:28.996Z,34.80
2018-09-09T12:20:57.038Z,35.30
2018-09-09T12:23:25.102Z,35.60
2018-09-09T12:25:53.141Z,35.10
2018-09-09T12:28:21.052Z,35.00
2018-09-09T12:30:49.083Z,35.70
2018-09-09T12:33:17.028Z,36.30
2018-09-09T12:35:45.035Z,35.70
2018-09-09T12:38:12.889Z,35.90
2018-09-09T12:40:41.043Z,36.20
2018-09-09T12:43:14.532Z,35.60
2018-09-09T12:45:49.337Z,35.90
2018-09-09T12:48:23.008Z,35.50
2018-09-09T12:50:50.949Z,35.70
2018-09-09T12:53:18.928Z,36.60
2018-09-09T12:55:46.867Z,35.10
2018-09-09T12:58:14.784Z,35.60
2018-09-09T13:00:42.712Z,35.40
2018-09-09T13:03:10.800Z,35.40
2018-09-09T13:05:39.084Z,36.20
2018-09-09T13:08:07.329Z,36.70
2018-09-09T13:10:35.371Z,36.20
2018-09-09T13:13:08.921Z,36.70
2018-09-09T13:15:37.316Z,36.80
2018-09-09T13:18:05.355Z,37.70
2018-09-09T13:20:33.214Z,36.40
2018-09-09T13:23:01.125Z,36.90
2018-09-09T13:25:29.088Z,36.50
2018-09-09T13:27:57.097Z,35.60
2018-09-09T13:30:25.113Z,36.10
2018-09-09T13:32:53.038Z,35.80
2018-09-09T13:35:21.274Z,37.60
2018-09-09T13:37:49.812Z,36.20
2018-09-09T13:40:18.120Z,37.70
2018-09-09T13:42:46.580Z,37.00
2018-09-09T13:45:14.535Z,37.50
2018-09-09T13:47:42.530Z,37.20
2018-09-09T13:50:10.438Z,36.40
2018-09-09T13:52:38.488Z,37.00
2018-09-09T13:55:07.403Z,37.60
2018-09-09T13:57:35.553Z,37.90
2018-09-09T14:00:03.797Z,38.50
2018-09-09T14:02:31.701Z,39.70
2018-09-09T14:04:59.690Z,37.00
2018-09-09T14:07:27.721Z,37.10
2018-09-09T14:09:55.767Z,37.30
2018-09-09T14:12:23.784Z,38.10
2018-09-09T14:14:53.182Z,36.50
2018-09-09T14:17:21.447Z,36.80
2018-09-09T14:19:49.554Z,35.80
2018-09-09T14:22:18.027Z,35.90
2018-09-09T14:24:46.098Z,36.00
2018-09-09T14:27:14.921Z,33.40
2018-09-09T14:29:42.931Z,33.30
2018-09-09T14:32:11.455Z,34.00
2018-09-09T14:34:39.624Z,34.10
2018-09-09T14:37:07.651Z,36.70
2018-09-09T14:39:35.688Z,35.70
2018-09-09T14:42:03.825Z,36.90
2018-09-09T14:44:32.041Z,35.90
2018-09-09T14:47:00.085Z,37.10
2018-09-09T14:49:28.081Z,35.70
2018-09-09T14:51:56.142Z,37.00
2018-09-09T14:54:24.322Z,37.50
2018-09-09T14:56:52.380Z,36.40
2018-09-09T14:59:20.592Z,37.00
2018-09-09T15:01:48.681Z,37.10
2018-09-09T15:04:17.013Z,36.60
2018-09-09T15:06:50.550Z,36.20
2018-09-09T15:09:18.451Z,36.10
2018-09-09T15:11:46.408Z,35.40
2018-09-09T15:14:14.266Z,35.50
2018-09-09T15:16:42.433Z,37.40
2018-09-09T15:19:10.367Z,37.10
2018-09-09T15:21:38.368Z,37.70
2018-09-09T15:24:06.658Z,37.00
2018-09-09T15:26:34.627Z,37.40
2018-09-09T15:29:02.557Z,38.10
2018-09-09T15:31:30.579Z,35.60
2018-09-09T15:33:58.573Z,35.40
2018-09-09T15:36:26.574Z,36.10
2018-09-09T15:38:54.462Z,35.40
2018-09-09T15:41:22.506Z,35.60
2018-09-09T15:43:50.547Z,35.60
2018-09-09T15:46:18.622Z,35.80
2018-09-09T15:48:46.620Z,36.20
2018-09-09T15:51:14.576Z,36.90
2018-09-09T15:53:42.497Z,37.80
2018-09-09T15:56:10.503Z,37.10
2018-09-09T15:58:38.441Z,36.80
2018-09-09T16:01:06.389Z,36.10
2018-09-09T16:03:34.462Z,35.90
2018-09-09T16:06:02.461Z,36.80
2018-09-09T16:08:30.380Z,36.60
2018-09-09T16:10:58.284Z,35.80
2018-09-09T16:13:26.310Z,36.70
2018-09-09T16:15:54.219Z,37.00
2018-09-09T16:18:22.224Z,37.70
2018-09-09T16:20:50.268Z,37.50
2018-09-09T16:23:18.402Z,36.80
2018-09-09T16:25:46.368Z,37.40
2018-09-09T16:28:14.239Z,37.70
2018-09-09T16:30:42.169Z,38.00
2018-09-09T16:33:09.999Z,38.50
2018-09-09T16:35:37.867Z,38.70
2018-09-09T16:38:05.794Z,38.50
2018-09-09T16:40:33.926Z,37.80
2018-09-09T16:43:01.858Z,37.50
2018-09-09T16:45:29.952Z,38.20
2018-09-09T16:47:57.844Z,38.30
2018-09-09T16:50:25.777Z,38.60
2018-09-09T16:52:53.784Z,38.00
2018-09-09T16:55:21.530Z,37.70
2018-09-09T16:57:49.439Z,37.80
2018-09-09T17:00:17.262Z,38.90
2018-09-09T17:02:45.175Z,39.10
2018-09-09T17:05:13.178Z,39.50
2018-09-09T17:07:41.109Z,39.20
2018-09-09T17:10:09.027Z,39.20
2018-09-09T17:12:37.012Z,40.60
2018-09-09T17:15:05.177Z,39.80
2018-09-09T17:17:33.089Z,40.50
2018-09-09T17:20:01.095Z,41.10
2018-09-09T17:22:29.135Z,41.30
2018-09-09T17:24:56.998Z,42.90
2018-09-09T17:27:25.077Z,42.30
2018-09-09T17:29:53.075Z,42.80
2018-09-09T17:32:21.048Z,43.30
2018-09-09T17:34:49.188Z,43.20
2018-09-09T17:37:17.823Z,44.00
2018-09-09T17:39:45.800Z,45.10
2018-09-09T17:42:13.812Z,45.90
2018-09-09T17:44:41.746Z,46.60
2018-09-09T17:47:09.667Z,47.50
2018-09-09T17:49:37.562Z,48.20
2018-09-09T17:52:05.794Z,48.80
2018-09-09T17:54:33.831Z,49.30
2018-09-09T17:57:08.665Z,49.50
2018-09-09T17:59:36.668Z,49.90
2018-09-09T18:02:04.527Z,50.80
2018-09-09T18:04:32.877Z,51.30
2018-09-09T18:07:00.872Z,51.30
2018-09-09T18:09:28.894Z,51.70
2018-09-09T18:11:57.274Z,51.90
2018-09-09T18:14:25.342Z,52.00
2018-09-09T18:16:53.385Z,52.50
2018-09-09T18:19:21.361Z,51.80
2018-09-09T18:21:49.401Z,52.00
2018-09-09T18:24:17.365Z,52.10
2018-09-09T18:26:45.454Z,53.00
2018-09-09T18:29:13.386Z,53.20
2018-09-09T18:31:41.304Z,53.60
2018-09-09T18:34:09.362Z,54.40
2018-09-09T18:36:37.411Z,55.10
2018-09-09T18:39:07.396Z,55.30
2018-09-09T18:41:35.375Z,55.40
2018-09-09T18:44:03.724Z,55.30
2018-09-09T18:46:31.779Z,55.70
2018-09-09T18:48:59.785Z,55.90
2018-09-09T18:51:27.693Z,55.60
2018-09-09T18:53:55.716Z,56.40
2018-09-09T18:56:24.025Z,57.10
2018-09-09T18:58:51.981Z,57.60
2018-09-09T19:01:20.005Z,57.70
2018-09-09T19:03:47.938Z,58.10
2018-09-09T19:06:16.249Z,58.30
2018-09-09T19:08:44.349Z,58.60
2018-09-09T19:11:12.632Z,58.60
2018-09-09T19:13:40.745Z,58.80
2018-09-09T19:16:08.950Z,59.10
2018-09-09T19:18:36.937Z,59.40
2018-09-09T19:21:05.228Z,59.80
2018-09-09T19:23:33.247Z,60.30
2018-09-09T19:26:01.237Z,60.40
2018-09-09T19:28:29.341Z,60.50
2018-09-09T19:30:57.316Z,60.40
2018-09-09T19:33:25.552Z,61.00
2018-09-09T19:35:55.485Z,61.40
2018-09-09T19:38:23.446Z,62.20
2018-09-09T19:40:51.414Z,61.90
2018-09-09T19:43:19.432Z,61.70
2018-09-09T19:45:47.432Z,61.90
2018-09-09T19:50:52.836Z,62.10
2018-09-09T19:53:20.601Z,62.70
2018-09-09T19:55:48.348Z,63.60
2018-09-09T19:58:16.234Z,64.00
2018-09-09T20:00:44.130Z,63.90
2018-09-09T20:03:11.904Z,64.60
2018-09-09T20:05:39.858Z,63.40
2018-09-09T20:08:08.004Z,63.30
2018-09-09T20:10:35.756Z,64.00
2018-09-09T20:13:03.861Z,64.90
2018-09-09T20:15:31.570Z,65.30
2018-09-09T20:17:59.286Z,63.40
2018-09-09T20:20:27.615Z,63.40
2018-09-09T20:25:34.495Z,63.20
2018-09-09T20:28:02.250Z,63.30
2018-09-09T20:30:30.116Z,63.60
2018-09-09T20:32:57.999Z,64.30
2018-09-09T20:35:25.818Z,64.70
2018-09-09T20:37:53.523Z,65.50
2018-09-09T20:40:21.326Z,66.10
2018-09-09T20:42:49.356Z,67.20
2018-09-09T20:45:17.136Z,68.00
2018-09-09T20:47:44.989Z,68.00
2018-09-09T20:50:12.709Z,67.80
2018-09-09T20:52:40.393Z,68.00
2018-09-09T20:55:08.166Z,68.20
2018-09-09T20:57:35.838Z,68.70
2018-09-09T21:00:03.699Z,68.70
2018-09-09T21:02:31.582Z,68.50
2018-09-09T21:04:59.322Z,69.10
2018-09-09T21:07:27.013Z,69.40
2018-09-09T21:09:55.132Z,70.00
2018-09-09T21:12:23.122Z,71.40
2018-09-09T21:14:50.846Z,73.20
2018-09-09T21:17:18.774Z,72.20
2018-09-09T21:19:46.556Z,72.20
2018-09-09T21:22:14.244Z,72.10
2018-09-09T21:24:42.347Z,72.80
2018-09-09T21:27:10.099Z,72.80
2018-09-09T21:29:37.906Z,72.40
2018-09-09T21:32:05.851Z,72.40
2018-09-09T21:34:33.536Z,72.60
2018-09-09T21:37:01.226Z,73.20
2018-09-09T21:39:28.868Z,73.70
2018-09-09T21:41:56.904Z,74.20
2018-09-09T21:44:24.611Z,74.20
2018-09-09T21:46:52.965Z,74.30
2018-09-09T21:49:20.693Z,75.10
2018-09-09T21:51:48.450Z,75.90
2018-09-09T21:54:16.273Z,76.40
2018-09-09T21:56:44.078Z,76.80
2018-09-09T21:59:11.816Z,76.90
2018-09-09T22:01:45.005Z,77.10
2018-09-09T22:04:12.723Z,77.70
2018-09-09T22:06:40.610Z,78.30
2018-09-09T22:09:09.425Z,78.80
2018-09-09T22:11:38.370Z,79.10
2018-09-09T22:14:06.496Z,79.80
2018-09-09T22:16:34.447Z,79.60
2018-09-09T22:19:03.095Z,79.40
2018-09-09T22:21:31.095Z,79.80
2018-09-09T22:23:58.972Z,79.40
2018-09-09T22:26:27.007Z,79.10
2018-09-09T22:28:55.023Z,79.10
2018-09-09T22:31:23.045Z,79.00
2018-09-09T22:33:50.938Z,79.20
2018-09-09T22:36:19.018Z,79.30
2018-09-09T22:38:47.037Z,79.50
2018-09-09T22:41:14.967Z,79.70
2018-09-09T22:43:43.001Z,80.40
2018-09-09T22:46:10.969Z,80.50
2018-09-09T22:48:38.904Z,80.90
2018-09-09T22:51:06.881Z,81.00
2018-09-09T22:53:35.002Z,81.20
2018-09-09T22:56:02.961Z,81.50
2018-09-09T22:58:30.893Z,81.40
2018-09-09T23:00:58.955Z,81.40
2018-09-09T23:03:26.946Z,81.40
2018-09-09T23:05:54.930Z,81.50
2018-09-09T23:08:23.100Z,81.50
2018-09-09T23:10:51.076Z,81.50
2018-09-09T23:13:19.059Z,81.80
2018-09-09T23:15:47.049Z,81.60
2018-09-09T23:18:15.064Z,81.90
2018-09-09T23:20:43.197Z,82.30
2018-09-09T23:23:11.196Z,82.70
2018-09-09T23:25:39.293Z,83.00
2018-09-09T23:28:07.336Z,83.30
2018-09-09T23:30:35.303Z,83.50
2018-09-09T23:33:03.304Z,84.30
2018-09-09T23:35:31.246Z,84.70
2018-09-09T23:37:59.152Z,85.40
2018-09-09T23:40:27.084Z,84.30
2018-09-09T23:42:55.101Z,83.50
2018-09-09T23:45:23.082Z,82.80
2018-09-09T23:47:51.192Z,82.90
2018-09-09T23:50:19.184Z,83.00
2018-09-09T23:52:47.077Z,83.10
2018-09-09T23:55:15.053Z,83.40
2018-09-09T23:57:42.983Z,83.50
